createdAt,value
2023-02-03T00:00:04.246Z,2.56
2023-02-03T00:16:01.564Z,2.22
2023-02-03T00:31:03.799Z,1.94
2023-02-03T00:46:01.073Z,1.56
2023-02-03T01:00:02.880Z,1.28
2023-02-03T01:16:05.230Z,1.06
2023-02-03T01:31:02.409Z,0.83
2023-02-03T01:46:04.686Z,0.72
2023-02-03T02:00:01.773Z,0.56
2023-02-03T02:16:04.198Z,0.56
2023-02-03T02:31:01.273Z,0.5
2023-02-03T02:46:03.551Z,0.44
2023-02-03T03:00:05.471Z,0.44
2023-02-03T03:16:02.904Z,0.44
2023-02-03T03:31:05.458Z,0.5
2023-02-03T03:46:02.548Z,0.5
2023-02-03T04:00:04.531Z,0.44
2023-02-03T04:16:01.891Z,0.56
2023-02-03T04:31:04.139Z,0.56
2023-02-03T04:46:01.276Z,0.56
2023-02-03T05:00:03.309Z,0.56
2023-02-03T05:16:05.725Z,0.5
2023-02-03T05:31:02.913Z,0.44
2023-02-03T05:46:05.218Z,0.44
2023-02-03T06:00:02.197Z,0.39
2023-02-03T06:16:04.487Z,0.33
2023-02-03T06:31:01.735Z,0.28
2023-02-03T06:46:03.663Z,0.22
2023-02-03T07:00:00.658Z,0.17
2023-02-03T07:16:03.002Z,-0.11
2023-02-03T07:31:05.374Z,-0.06
2023-02-03T07:46:03.092Z,-0.22
2023-02-03T08:00:04.126Z,-0.17
2023-02-03T08:16:01.645Z,-0.33
2023-02-03T08:31:03.851Z,-0.17
2023-02-03T08:46:00.795Z,0.28
2023-02-03T09:00:02.895Z,0.72
2023-02-03T09:16:05.297Z,1.06
2023-02-03T09:31:01.942Z,1.67
2023-02-03T09:46:04.167Z,2
2023-02-03T10:00:00.747Z,2.56
2023-02-03T10:16:02.627Z,3.28
2023-02-03T10:31:04.603Z,4.06
2023-02-03T10:46:01.259Z,4.28
2023-02-03T11:00:03.222Z,4.33
2023-02-03T11:16:05.630Z,4.39
2023-02-03T11:31:02.720Z,4.56
2023-02-03T11:46:05.004Z,4.89
2023-02-03T12:00:01.803Z,5
2023-02-03T12:16:04.279Z,5.17
2023-02-03T12:31:01.498Z,5.44
2023-02-03T12:46:03.773Z,5.89
2023-02-03T13:00:00.744Z,6
2023-02-03T13:16:03.129Z,6
2023-02-03T13:31:05.384Z,6.11
2023-02-03T13:46:02.508Z,6.28
2023-02-03T14:00:04.346Z,6.44
2023-02-03T14:16:01.630Z,6.89
2023-02-03T14:31:04.017Z,7.28
2023-02-03T14:46:01.236Z,7.33
2023-02-03T15:00:02.942Z,7.06
2023-02-03T15:16:05.214Z,6.78
2023-02-03T15:31:02.510Z,6.17
2023-02-03T15:46:04.486Z,5.44
2023-02-03T16:00:02.263Z,5
2023-02-03T16:16:03.758Z,4.61
2023-02-03T16:31:00.985Z,4.67
2023-02-03T16:46:03.054Z,4.78
2023-02-03T17:00:05.140Z,5
2023-02-03T17:16:02.404Z,6.89
2023-02-03T17:31:04.406Z,8.44
2023-02-03T17:53:19.098Z,8.28
2023-02-03T18:00:03.170Z,8.33
2023-02-03T18:16:06.369Z,8.33
2023-02-03T18:31:02.558Z,8.28
2023-02-03T18:46:04.660Z,7.83
2023-02-03T19:00:01.716Z,7.06
2023-02-03T19:16:04.473Z,6.5
2023-02-03T19:31:07.500Z,6.28
2023-02-03T19:46:03.673Z,6.11
2023-02-03T20:00:00.726Z,5.94
2023-02-03T20:16:03.147Z,5.83
2023-02-03T20:31:05.354Z,5.78
2023-02-03T20:46:02.713Z,5.72
2023-02-03T21:00:04.766Z,5.72
2023-02-03T21:16:02.167Z,5.56
2023-02-03T21:31:04.483Z,5.33
2023-02-03T21:46:01.653Z,5.17
2023-02-03T22:00:03.394Z,5.06
2023-02-03T22:16:05.532Z,5.06
2023-02-03T22:31:02.892Z,5
2023-02-03T22:46:05.165Z,4.89
2023-02-03T23:00:02.230Z,4.83
2023-02-03T23:16:04.554Z,4.89
2023-02-03T23:31:01.659Z,4.83
2023-02-03T23:46:03.762Z,4.67
